sensor_id;sensor_type;location;lat;lon;timestamp;P1;durP1;ratioP1;P2;durP2;ratioP2
11960;SDS011;6040;49.358;11.140;2022-08-27T00:00:40;10.53;;;7.70;;
11960;SDS011;6040;49.358;11.140;2022-08-27T00:03:07;8.57;;;7.70;;
11960;SDS011;6040;49.358;11.140;2022-08-27T00:05:34;9.33;;;8.33;;
11960;SDS011;6040;49.358;11.140;2022-08-27T00:08:02;10.47;;;7.80;;
11960;SDS011;6040;49.358;11.140;2022-08-27T00:10:30;10.53;;;7.57;;
11960;SDS011;6040;49.358;11.140;2022-08-27T00:12:58;12.33;;;7.97;;
11960;SDS011;6040;49.358;11.140;2022-08-27T00:15:25;11.47;;;8.37;;
11960;SDS011;6040;49.358;11.140;2022-08-27T00:17:53;9.60;;;8.37;;
11960;SDS011;6040;49.358;11.140;2022-08-27T00:20:21;10.53;;;8.33;;
11960;SDS011;6040;49.358;11.140;2022-08-27T00:22:50;12.30;;;8.23;;
11960;SDS011;6040;49.358;11.140;2022-08-27T00:25:17;8.67;;;7.77;;
11960;SDS011;6040;49.358;11.140;2022-08-27T00:27:46;15.10;;;9.33;;
11960;SDS011;6040;49.358;11.140;2022-08-27T00:30:14;10.87;;;8.93;;
11960;SDS011;6040;49.358;11.140;2022-08-27T00:32:42;15.17;;;10.93;;
11960;SDS011;6040;49.358;11.140;2022-08-27T00:35:10;14.23;;;11.30;;
11960;SDS011;6040;49.358;11.140;2022-08-27T00:37:38;16.27;;;11.63;;
11960;SDS011;6040;49.358;11.140;2022-08-27T00:40:06;15.43;;;11.37;;
11960;SDS011;6040;49.358;11.140;2022-08-27T00:42:35;11.97;;;10.73;;
11960;SDS011;6040;49.358;11.140;2022-08-27T00:45:04;14.83;;;10.50;;
11960;SDS011;6040;49.358;11.140;2022-08-27T00:47:31;10.83;;;9.73;;
11960;SDS011;6040;49.358;11.140;2022-08-27T00:50:07;13.27;;;10.60;;
11960;SDS011;6040;49.358;11.140;2022-08-27T00:52:40;12.67;;;10.60;;
11960;SDS011;6040;49.358;11.140;2022-08-27T00:55:11;12.87;;;10.17;;
11960;SDS011;6040;49.358;11.140;2022-08-27T00:57:42;14.93;;;12.07;;
11960;SDS011;6040;49.358;11.140;2022-08-27T01:00:12;13.00;;;11.63;;
11960;SDS011;6040;49.358;11.140;2022-08-27T01:02:42;14.67;;;11.10;;
11960;SDS011;6040;49.358;11.140;2022-08-27T01:05:11;12.53;;;11.23;;
11960;SDS011;6040;49.358;11.140;2022-08-27T01:07:42;17.47;;;12.00;;
11960;SDS011;6040;49.358;11.140;2022-08-27T01:10:13;14.00;;;12.50;;
11960;SDS011;6040;49.358;11.140;2022-08-27T01:12:42;16.63;;;12.60;;
11960;SDS011;6040;49.358;11.140;2022-08-27T01:15:10;17.90;;;13.07;;
11960;SDS011;6040;49.358;11.140;2022-08-27T01:17:42;15.27;;;12.73;;
11960;SDS011;6040;49.358;11.140;2022-08-27T01:20:11;13.97;;;12.53;;
11960;SDS011;6040;49.358;11.140;2022-08-27T01:22:43;14.50;;;12.17;;
11960;SDS011;6040;49.358;11.140;2022-08-27T01:25:19;16.97;;;12.33;;
11960;SDS011;6040;49.358;11.140;2022-08-27T01:27:47;15.27;;;12.33;;
11960;SDS011;6040;49.358;11.140;2022-08-27T01:30:15;15.27;;;12.83;;
11960;SDS011;6040;49.358;11.140;2022-08-27T01:32:44;15.30;;;13.20;;
11960;SDS011;6040;49.358;11.140;2022-08-27T01:35:12;14.50;;;12.00;;
11960;SDS011;6040;49.358;11.140;2022-08-27T01:37:41;13.23;;;11.77;;
11960;SDS011;6040;49.358;11.140;2022-08-27T01:40:09;13.07;;;11.47;;
11960;SDS011;6040;49.358;11.140;2022-08-27T01:42:38;13.03;;;10.67;;
11960;SDS011;6040;49.358;11.140;2022-08-27T01:45:08;17.07;;;12.07;;
11960;SDS011;6040;49.358;11.140;2022-08-27T01:47:37;12.17;;;10.30;;
11960;SDS011;6040;49.358;11.140;2022-08-27T01:50:04;13.53;;;11.90;;
11960;SDS011;6040;49.358;11.140;2022-08-27T01:52:34;16.23;;;12.33;;
11960;SDS011;6040;49.358;11.140;2022-08-27T01:55:02;16.33;;;12.47;;
11960;SDS011;6040;49.358;11.140;2022-08-27T01:57:30;15.27;;;12.93;;
11960;SDS011;6040;49.358;11.140;2022-08-27T02:00:00;15.73;;;12.07;;
11960;SDS011;6040;49.358;11.140;2022-08-27T02:02:29;15.10;;;12.03;;
11960;SDS011;6040;49.358;11.140;2022-08-27T02:04:56;20.67;;;11.90;;
11960;SDS011;6040;49.358;11.140;2022-08-27T02:07:23;16.67;;;10.97;;
11960;SDS011;6040;49.358;11.140;2022-08-27T02:09:50;13.30;;;10.47;;
11960;SDS011;6040;49.358;11.140;2022-08-27T02:12:17;12.87;;;10.77;;
11960;SDS011;6040;49.358;11.140;2022-08-27T02:14:44;12.53;;;11.03;;
11960;SDS011;6040;49.358;11.140;2022-08-27T02:17:12;12.10;;;10.73;;
11960;SDS011;6040;49.358;11.140;2022-08-27T02:19:39;13.40;;;10.20;;
11960;SDS011;6040;49.358;11.140;2022-08-27T02:22:06;14.70;;;12.07;;
11960;SDS011;6040;49.358;11.140;2022-08-27T02:24:33;12.90;;;10.17;;
11960;SDS011;6040;49.358;11.140;2022-08-27T02:27:00;10.97;;;9.87;;
11960;SDS011;6040;49.358;11.140;2022-08-27T02:29:27;12.80;;;9.77;;
11960;SDS011;6040;49.358;11.140;2022-08-27T02:31:58;12.67;;;10.67;;
11960;SDS011;6040;49.358;11.140;2022-08-27T02:34:27;10.77;;;9.67;;
11960;SDS011;6040;49.358;11.140;2022-08-27T02:36:54;16.73;;;10.27;;
11960;SDS011;6040;49.358;11.140;2022-08-27T02:39:21;14.23;;;10.77;;
11960;SDS011;6040;49.358;11.140;2022-08-27T02:41:48;14.37;;;10.27;;
11960;SDS011;6040;49.358;11.140;2022-08-27T02:44:15;13.10;;;10.40;;
11960;SDS011;6040;49.358;11.140;2022-08-27T02:46:42;12.43;;;11.07;;
11960;SDS011;6040;49.358;11.140;2022-08-27T02:49:09;12.50;;;10.00;;
11960;SDS011;6040;49.358;11.140;2022-08-27T02:51:37;11.37;;;9.97;;
11960;SDS011;6040;49.358;11.140;2022-08-27T02:54:04;12.43;;;10.67;;
11960;SDS011;6040;49.358;11.140;2022-08-27T02:56:31;12.00;;;10.70;;
11960;SDS011;6040;49.358;11.140;2022-08-27T02:58:58;13.73;;;10.93;;
11960;SDS011;6040;49.358;11.140;2022-08-27T03:01:25;12.53;;;10.53;;
11960;SDS011;6040;49.358;11.140;2022-08-27T03:03:52;13.07;;;11.43;;
11960;SDS011;6040;49.358;11.140;2022-08-27T03:06:19;15.57;;;10.83;;
11960;SDS011;6040;49.358;11.140;2022-08-27T03:08:48;12.03;;;10.63;;
11960;SDS011;6040;49.358;11.140;2022-08-27T03:11:14;13.03;;;11.60;;
11960;SDS011;6040;49.358;11.140;2022-08-27T03:13:41;16.47;;;12.20;;
11960;SDS011;6040;49.358;11.140;2022-08-27T03:16:08;14.90;;;12.50;;
11960;SDS011;6040;49.358;11.140;2022-08-27T03:18:35;14.70;;;13.13;;
11960;SDS011;6040;49.358;11.140;2022-08-27T03:21:01;15.07;;;12.13;;
11960;SDS011;6040;49.358;11.140;2022-08-27T03:23:29;15.90;;;12.73;;
11960;SDS011;6040;49.358;11.140;2022-08-27T03:26:00;16.03;;;12.17;;
11960;SDS011;6040;49.358;11.140;2022-08-27T03:28:31;13.90;;;12.23;;
11960;SDS011;6040;49.358;11.140;2022-08-27T03:31:02;14.33;;;12.50;;
11960;SDS011;6040;49.358;11.140;2022-08-27T03:33:34;15.60;;;12.50;;
11960;SDS011;6040;49.358;11.140;2022-08-27T03:36:02;12.90;;;11.60;;
11960;SDS011;6040;49.358;11.140;2022-08-27T03:38:30;14.97;;;11.03;;
11960;SDS011;6040;49.358;11.140;2022-08-27T03:40:57;14.03;;;11.80;;
11960;SDS011;6040;49.358;11.140;2022-08-27T03:43:26;13.13;;;11.63;;
11960;SDS011;6040;49.358;11.140;2022-08-27T03:45:53;14.63;;;11.97;;
11960;SDS011;6040;49.358;11.140;2022-08-27T03:48:20;14.47;;;12.67;;
11960;SDS011;6040;49.358;11.140;2022-08-27T03:50:47;18.40;;;11.77;;
11960;SDS011;6040;49.358;11.140;2022-08-27T03:53:16;13.43;;;11.93;;
11960;SDS011;6040;49.358;11.140;2022-08-27T03:55:44;13.40;;;11.43;;
11960;SDS011;6040;49.358;11.140;2022-08-27T03:58:13;13.63;;;11.90;;
11960;SDS011;6040;49.358;11.140;2022-08-27T04:00:41;13.20;;;11.80;;
11960;SDS011;6040;49.358;11.140;2022-08-27T04:03:10;15.00;;;12.10;;
11960;SDS011;6040;49.358;11.140;2022-08-27T04:05:37;14.10;;;12.27;;
11960;SDS011;6040;49.358;11.140;2022-08-27T04:08:04;15.03;;;12.60;;
11960;SDS011;6040;49.358;11.140;2022-08-27T04:10:31;15.20;;;12.10;;
11960;SDS011;6040;49.358;11.140;2022-08-27T04:12:58;13.43;;;12.07;;
11960;SDS011;6040;49.358;11.140;2022-08-27T04:15:26;14.27;;;12.10;;
11960;SDS011;6040;49.358;11.140;2022-08-27T04:17:53;14.00;;;12.53;;
11960;SDS011;6040;49.358;11.140;2022-08-27T04:20:20;13.97;;;12.30;;
11960;SDS011;6040;49.358;11.140;2022-08-27T04:22:47;15.57;;;11.73;;
11960;SDS011;6040;49.358;11.140;2022-08-27T04:25:14;14.40;;;11.60;;
11960;SDS011;6040;49.358;11.140;2022-08-27T04:27:41;13.87;;;11.23;;
11960;SDS011;6040;49.358;11.140;2022-08-27T04:30:08;14.53;;;12.97;;
11960;SDS011;6040;49.358;11.140;2022-08-27T04:32:40;14.53;;;13.03;;
11960;SDS011;6040;49.358;11.140;2022-08-27T04:35:07;16.63;;;12.73;;
11960;SDS011;6040;49.358;11.140;2022-08-27T04:37:35;13.40;;;12.00;;
11960;SDS011;6040;49.358;11.140;2022-08-27T04:40:03;14.20;;;12.70;;
11960;SDS011;6040;49.358;11.140;2022-08-27T04:42:30;14.80;;;13.13;;
11960;SDS011;6040;49.358;11.140;2022-08-27T04:44:57;18.70;;;13.80;;
11960;SDS011;6040;49.358;11.140;2022-08-27T04:47:24;16.77;;;14.23;;
11960;SDS011;6040;49.358;11.140;2022-08-27T04:49:52;15.87;;;12.33;;
11960;SDS011;6040;49.358;11.140;2022-08-27T04:52:19;16.87;;;14.53;;
11960;SDS011;6040;49.358;11.140;2022-08-27T04:54:46;15.43;;;13.27;;
11960;SDS011;6040;49.358;11.140;2022-08-27T04:57:13;18.00;;;14.37;;
11960;SDS011;6040;49.358;11.140;2022-08-27T04:59:40;18.52;;;15.13;;
11960;SDS011;6040;49.358;11.140;2022-08-27T05:02:07;14.83;;;13.33;;
11960;SDS011;6040;49.358;11.140;2022-08-27T05:04:35;15.03;;;13.40;;
11960;SDS011;6040;49.358;11.140;2022-08-27T05:07:05;16.73;;;12.70;;
11960;SDS011;6040;49.358;11.140;2022-08-27T05:09:34;14.20;;;11.57;;
11960;SDS011;6040;49.358;11.140;2022-08-27T05:12:01;16.80;;;13.57;;
11960;SDS011;6040;49.358;11.140;2022-08-27T05:14:28;14.57;;;13.17;;
11960;SDS011;6040;49.358;11.140;2022-08-27T05:16:56;13.83;;;12.43;;
11960;SDS011;6040;49.358;11.140;2022-08-27T05:19:24;13.50;;;12.13;;
11960;SDS011;6040;49.358;11.140;2022-08-27T05:21:51;15.30;;;13.10;;
11960;SDS011;6040;49.358;11.140;2022-08-27T05:24:20;15.23;;;13.63;;
11960;SDS011;6040;49.358;11.140;2022-08-27T05:26:48;13.33;;;11.93;;
11960;SDS011;6040;49.358;11.140;2022-08-27T05:29:15;16.13;;;12.83;;
11960;SDS011;6040;49.358;11.140;2022-08-27T05:31:42;12.27;;;11.03;;
11960;SDS011;6040;49.358;11.140;2022-08-27T05:34:12;14.47;;;12.87;;
11960;SDS011;6040;49.358;11.140;2022-08-27T05:36:39;14.07;;;12.07;;
11960;SDS011;6040;49.358;11.140;2022-08-27T05:39:06;16.10;;;11.90;;
11960;SDS011;6040;49.358;11.140;2022-08-27T05:41:35;15.63;;;12.13;;
11960;SDS011;6040;49.358;11.140;2022-08-27T05:44:04;14.47;;;12.90;;
11960;SDS011;6040;49.358;11.140;2022-08-27T05:46:33;15.57;;;12.43;;
11960;SDS011;6040;49.358;11.140;2022-08-27T05:49:03;13.95;;;12.55;;
11960;SDS011;6040;49.358;11.140;2022-08-27T05:51:32;13.73;;;12.53;;
11960;SDS011;6040;49.358;11.140;2022-08-27T05:54:00;17.93;;;11.97;;
11960;SDS011;6040;49.358;11.140;2022-08-27T05:56:31;13.27;;;11.83;;
11960;SDS011;6040;49.358;11.140;2022-08-27T05:59:01;13.07;;;11.60;;
11960;SDS011;6040;49.358;11.140;2022-08-27T06:01:47;14.27;;;12.87;;
11960;SDS011;6040;49.358;11.140;2022-08-27T06:04:16;14.60;;;12.43;;
11960;SDS011;6040;49.358;11.140;2022-08-27T06:06:44;16.03;;;11.43;;
11960;SDS011;6040;49.358;11.140;2022-08-27T06:09:12;12.17;;;10.50;;
11960;SDS011;6040;49.358;11.140;2022-08-27T06:11:41;12.40;;;11.10;;
11960;SDS011;6040;49.358;11.140;2022-08-27T06:14:11;14.27;;;11.43;;
11960;SDS011;6040;49.358;11.140;2022-08-27T06:16:39;12.90;;;11.27;;
11960;SDS011;6040;49.358;11.140;2022-08-27T06:19:06;13.73;;;11.20;;
11960;SDS011;6040;49.358;11.140;2022-08-27T06:21:36;13.07;;;11.77;;
11960;SDS011;6040;49.358;11.140;2022-08-27T06:24:03;12.93;;;11.30;;
11960;SDS011;6040;49.358;11.140;2022-08-27T06:26:30;14.33;;;11.63;;
11960;SDS011;6040;49.358;11.140;2022-08-27T06:29:00;13.07;;;11.20;;
11960;SDS011;6040;49.358;11.140;2022-08-27T06:31:29;11.60;;;10.40;;
11960;SDS011;6040;49.358;11.140;2022-08-27T06:33:57;15.23;;;11.93;;
11960;SDS011;6040;49.358;11.140;2022-08-27T06:36:25;12.70;;;11.43;;
11960;SDS011;6040;49.358;11.140;2022-08-27T06:38:53;12.83;;;11.43;;
11960;SDS011;6040;49.358;11.140;2022-08-27T06:41:21;12.30;;;11.00;;
11960;SDS011;6040;49.358;11.140;2022-08-27T06:43:51;14.33;;;11.17;;
11960;SDS011;6040;49.358;11.140;2022-08-27T06:46:20;11.60;;;10.40;;
11960;SDS011;6040;49.358;11.140;2022-08-27T06:48:51;14.10;;;9.97;;
11960;SDS011;6040;49.358;11.140;2022-08-27T06:51:19;12.13;;;10.13;;
11960;SDS011;6040;49.358;11.140;2022-08-27T06:53:50;11.37;;;10.10;;
11960;SDS011;6040;49.358;11.140;2022-08-27T06:56:17;11.20;;;9.17;;
11960;SDS011;6040;49.358;11.140;2022-08-27T06:58:45;12.37;;;10.40;;
11960;SDS011;6040;49.358;11.140;2022-08-27T07:01:12;11.43;;;9.93;;
11960;SDS011;6040;49.358;11.140;2022-08-27T07:03:41;15.23;;;10.37;;
11960;SDS011;6040;49.358;11.140;2022-08-27T07:06:10;12.07;;;10.53;;
11960;SDS011;6040;49.358;11.140;2022-08-27T07:08:38;13.13;;;9.73;;
11960;SDS011;6040;49.358;11.140;2022-08-27T07:11:06;10.97;;;9.87;;
11960;SDS011;6040;49.358;11.140;2022-08-27T07:13:33;12.93;;;9.93;;
11960;SDS011;6040;49.358;11.140;2022-08-27T07:16:02;12.00;;;10.67;;
11960;SDS011;6040;49.358;11.140;2022-08-27T07:18:30;10.73;;;9.63;;
11960;SDS011;6040;49.358;11.140;2022-08-27T07:20:57;11.50;;;9.63;;
11960;SDS011;6040;49.358;11.140;2022-08-27T07:23:25;12.20;;;10.77;;
11960;SDS011;6040;49.358;11.140;2022-08-27T07:25:52;11.80;;;10.57;;
11960;SDS011;6040;49.358;11.140;2022-08-27T07:28:19;14.50;;;10.80;;
11960;SDS011;6040;49.358;11.140;2022-08-27T07:30:46;12.37;;;10.80;;
11960;SDS011;6040;49.358;11.140;2022-08-27T07:33:13;14.93;;;11.60;;
11960;SDS011;6040;49.358;11.140;2022-08-27T07:35:40;18.13;;;12.63;;
11960;SDS011;6040;49.358;11.140;2022-08-27T07:38:08;13.47;;;12.03;;
11960;SDS011;6040;49.358;11.140;2022-08-27T07:40:37;14.93;;;12.43;;
11960;SDS011;6040;49.358;11.140;2022-08-27T07:43:04;15.03;;;11.50;;
11960;SDS011;6040;49.358;11.140;2022-08-27T07:45:48;14.03;;;10.80;;
11960;SDS011;6040;49.358;11.140;2022-08-27T07:48:19;16.30;;;11.13;;
11960;SDS011;6040;49.358;11.140;2022-08-27T07:50:47;19.67;;;11.70;;
11960;SDS011;6040;49.358;11.140;2022-08-27T07:53:14;12.47;;;11.00;;
11960;SDS011;6040;49.358;11.140;2022-08-27T07:55:42;14.43;;;11.27;;
11960;SDS011;6040;49.358;11.140;2022-08-27T07:58:09;13.93;;;12.53;;
11960;SDS011;6040;49.358;11.140;2022-08-27T08:00:39;12.77;;;11.37;;
11960;SDS011;6040;49.358;11.140;2022-08-27T08:03:06;13.13;;;11.37;;
11960;SDS011;6040;49.358;11.140;2022-08-27T08:05:33;15.73;;;13.37;;
11960;SDS011;6040;49.358;11.140;2022-08-27T08:08:00;16.07;;;12.43;;
11960;SDS011;6040;49.358;11.140;2022-08-27T08:10:28;15.50;;;13.30;;
11960;SDS011;6040;49.358;11.140;2022-08-27T08:12:56;18.07;;;12.73;;
11960;SDS011;6040;49.358;11.140;2022-08-27T08:15:23;15.07;;;11.83;;
11960;SDS011;6040;49.358;11.140;2022-08-27T08:17:50;17.50;;;11.83;;
11960;SDS011;6040;49.358;11.140;2022-08-27T08:20:17;15.10;;;12.60;;
11960;SDS011;6040;49.358;11.140;2022-08-27T08:22:44;15.20;;;12.83;;
11960;SDS011;6040;49.358;11.140;2022-08-27T08:25:11;13.27;;;10.83;;
11960;SDS011;6040;49.358;11.140;2022-08-27T08:27:39;16.77;;;11.67;;
11960;SDS011;6040;49.358;11.140;2022-08-27T08:30:08;14.23;;;11.10;;
11960;SDS011;6040;49.358;11.140;2022-08-27T08:32:36;11.33;;;10.13;;
11960;SDS011;6040;49.358;11.140;2022-08-27T08:35:04;11.23;;;9.80;;
11960;SDS011;6040;49.358;11.140;2022-08-27T08:37:32;14.77;;;11.17;;
11960;SDS011;6040;49.358;11.140;2022-08-27T08:40:00;10.93;;;9.87;;
11960;SDS011;6040;49.358;11.140;2022-08-27T08:42:29;12.57;;;9.87;;
11960;SDS011;6040;49.358;11.140;2022-08-27T08:45:00;10.27;;;8.93;;
11960;SDS011;6040;49.358;11.140;2022-08-27T08:47:31;12.27;;;9.57;;
11960;SDS011;6040;49.358;11.140;2022-08-27T08:50:08;10.53;;;8.73;;
11960;SDS011;6040;49.358;11.140;2022-08-27T08:52:41;12.17;;;8.53;;
11960;SDS011;6040;49.358;11.140;2022-08-27T08:55:21;14.00;;;10.03;;
11960;SDS011;6040;49.358;11.140;2022-08-27T08:57:59;10.57;;;8.40;;
11960;SDS011;6040;49.358;11.140;2022-08-27T09:00:35;10.83;;;8.67;;
11960;SDS011;6040;49.358;11.140;2022-08-27T09:03:05;13.77;;;7.97;;
11960;SDS011;6040;49.358;11.140;2022-08-27T09:05:32;12.33;;;9.47;;
11960;SDS011;6040;49.358;11.140;2022-08-27T09:08:04;7.63;;;6.90;;
11960;SDS011;6040;49.358;11.140;2022-08-27T09:10:37;11.57;;;8.37;;
11960;SDS011;6040;49.358;11.140;2022-08-27T09:13:11;8.70;;;7.70;;
11960;SDS011;6040;49.358;11.140;2022-08-27T09:15:45;9.37;;;8.27;;
11960;SDS011;6040;49.358;11.140;2022-08-27T09:18:14;10.17;;;8.33;;
11960;SDS011;6040;49.358;11.140;2022-08-27T09:20:42;7.97;;;7.07;;
11960;SDS011;6040;49.358;11.140;2022-08-27T09:23:15;7.43;;;6.70;;
11960;SDS011;6040;49.358;11.140;2022-08-27T09:25:46;8.43;;;7.57;;
11960;SDS011;6040;49.358;11.140;2022-08-27T09:28:14;8.07;;;7.27;;
11960;SDS011;6040;49.358;11.140;2022-08-27T09:31:02;8.53;;;7.63;;
11960;SDS011;6040;49.358;11.140;2022-08-27T09:33:32;11.03;;;7.40;;
11960;SDS011;6040;49.358;11.140;2022-08-27T09:36:00;8.33;;;6.57;;
11960;SDS011;6040;49.358;11.140;2022-08-27T09:38:28;10.33;;;7.00;;
11960;SDS011;6040;49.358;11.140;2022-08-27T09:40:58;9.97;;;6.10;;
11960;SDS011;6040;49.358;11.140;2022-08-27T09:43:28;6.97;;;6.30;;
11960;SDS011;6040;49.358;11.140;2022-08-27T09:45:56;8.13;;;6.87;;
11960;SDS011;6040;49.358;11.140;2022-08-27T09:48:25;7.80;;;6.60;;
11960;SDS011;6040;49.358;11.140;2022-08-27T09:50:56;8.37;;;7.10;;
11960;SDS011;6040;49.358;11.140;2022-08-27T09:53:26;10.00;;;7.80;;
11960;SDS011;6040;49.358;11.140;2022-08-27T09:55:56;9.10;;;8.20;;
11960;SDS011;6040;49.358;11.140;2022-08-27T09:58:25;10.63;;;8.60;;
11960;SDS011;6040;49.358;11.140;2022-08-27T10:00:58;11.27;;;8.50;;
11960;SDS011;6040;49.358;11.140;2022-08-27T10:03:27;12.30;;;8.60;;
11960;SDS011;6040;49.358;11.140;2022-08-27T10:05:55;9.20;;;7.83;;
11960;SDS011;6040;49.358;11.140;2022-08-27T10:08:23;11.50;;;7.60;;
11960;SDS011;6040;49.358;11.140;2022-08-27T10:10:55;10.53;;;7.60;;
11960;SDS011;6040;49.358;11.140;2022-08-27T10:13:25;11.27;;;8.10;;
11960;SDS011;6040;49.358;11.140;2022-08-27T10:16:00;9.50;;;7.60;;
11960;SDS011;6040;49.358;11.140;2022-08-27T10:18:36;8.37;;;7.57;;
11960;SDS011;6040;49.358;11.140;2022-08-27T10:21:14;9.20;;;8.07;;
11960;SDS011;6040;49.358;11.140;2022-08-27T10:23:50;12.50;;;9.20;;
11960;SDS011;6040;49.358;11.140;2022-08-27T10:26:29;13.20;;;9.43;;
11960;SDS011;6040;49.358;11.140;2022-08-27T10:29:07;9.80;;;8.40;;
11960;SDS011;6040;49.358;11.140;2022-08-27T10:31:42;8.93;;;8.03;;
11960;SDS011;6040;49.358;11.140;2022-08-27T10:34:21;10.53;;;8.50;;
11960;SDS011;6040;49.358;11.140;2022-08-27T10:37:01;10.80;;;8.70;;
11960;SDS011;6040;49.358;11.140;2022-08-27T10:39:39;11.50;;;8.57;;
11960;SDS011;6040;49.358;11.140;2022-08-27T10:42:16;10.87;;;8.53;;
11960;SDS011;6040;49.358;11.140;2022-08-27T10:44:53;8.70;;;7.50;;
11960;SDS011;6040;49.358;11.140;2022-08-27T10:47:33;9.60;;;7.47;;
11960;SDS011;6040;49.358;11.140;2022-08-27T10:50:17;8.93;;;6.67;;
11960;SDS011;6040;49.358;11.140;2022-08-27T10:52:54;7.97;;;6.83;;
11960;SDS011;6040;49.358;11.140;2022-08-27T10:55:26;7.60;;;6.67;;
11960;SDS011;6040;49.358;11.140;2022-08-27T11:01:02;8.90;;;6.83;;
11960;SDS011;6040;49.358;11.140;2022-08-27T11:03:37;9.33;;;6.37;;
11960;SDS011;6040;49.358;11.140;2022-08-27T11:06:11;7.07;;;6.38;;
11960;SDS011;6040;49.358;11.140;2022-08-27T11:08:47;6.70;;;6.10;;
11960;SDS011;6040;49.358;11.140;2022-08-27T11:11:24;6.83;;;6.10;;
11960;SDS011;6040;49.358;11.140;2022-08-27T11:13:57;5.80;;;5.20;;
11960;SDS011;6040;49.358;11.140;2022-08-27T11:16:26;10.63;;;6.57;;
11960;SDS011;6040;49.358;11.140;2022-08-27T11:19:01;6.72;;;6.03;;
11960;SDS011;6040;49.358;11.140;2022-08-27T11:21:32;6.47;;;5.88;;
11960;SDS011;6040;49.358;11.140;2022-08-27T11:24:10;7.15;;;6.10;;
11960;SDS011;6040;49.358;11.140;2022-08-27T11:26:48;6.25;;;5.60;;
11960;SDS011;6040;49.358;11.140;2022-08-27T11:29:18;5.40;;;4.90;;
11960;SDS011;6040;49.358;11.140;2022-08-27T11:31:52;6.25;;;5.00;;
11960;SDS011;6040;49.358;11.140;2022-08-27T11:34:28;5.30;;;4.80;;
11960;SDS011;6040;49.358;11.140;2022-08-27T11:37:06;7.65;;;5.32;;
11960;SDS011;6040;49.358;11.140;2022-08-27T11:39:50;6.82;;;6.22;;
11960;SDS011;6040;49.358;11.140;2022-08-27T11:42:33;6.45;;;5.85;;
11960;SDS011;6040;49.358;11.140;2022-08-27T11:45:07;6.57;;;5.90;;
11960;SDS011;6040;49.358;11.140;2022-08-27T11:47:49;6.35;;;5.72;;
11960;SDS011;6040;49.358;11.140;2022-08-27T11:50:18;7.03;;;5.70;;
11960;SDS011;6040;49.358;11.140;2022-08-27T11:52:53;8.65;;;6.13;;
11960;SDS011;6040;49.358;11.140;2022-08-27T11:55:27;7.03;;;5.93;;
11960;SDS011;6040;49.358;11.140;2022-08-27T11:58:04;8.00;;;6.03;;
11960;SDS011;6040;49.358;11.140;2022-08-27T12:00:33;8.20;;;5.93;;
11960;SDS011;6040;49.358;11.140;2022-08-27T12:03:03;9.68;;;5.85;;
11960;SDS011;6040;49.358;11.140;2022-08-27T12:05:36;8.25;;;5.47;;
11960;SDS011;6040;49.358;11.140;2022-08-27T12:08:13;5.70;;;5.22;;
11960;SDS011;6040;49.358;11.140;2022-08-27T12:10:48;5.35;;;4.85;;
11960;SDS011;6040;49.358;11.140;2022-08-27T12:13:24;5.13;;;4.72;;
11960;SDS011;6040;49.358;11.140;2022-08-27T12:15:59;5.30;;;4.80;;
11960;SDS011;6040;49.358;11.140;2022-08-27T12:18:45;4.63;;;4.10;;
11960;SDS011;6040;49.358;11.140;2022-08-27T12:21:24;4.85;;;4.15;;
11960;SDS011;6040;49.358;11.140;2022-08-27T12:24:07;4.85;;;4.45;;
11960;SDS011;6040;49.358;11.140;2022-08-27T12:26:54;4.93;;;4.20;;
11960;SDS011;6040;49.358;11.140;2022-08-27T12:29:24;4.13;;;3.72;;
11960;SDS011;6040;49.358;11.140;2022-08-27T12:31:59;7.35;;;4.32;;
11960;SDS011;6040;49.358;11.140;2022-08-27T12:34:30;3.67;;;3.38;;
11960;SDS011;6040;49.358;11.140;2022-08-27T12:37:08;3.60;;;3.30;;
11960;SDS011;6040;49.358;11.140;2022-08-27T12:39:35;3.40;;;3.10;;
11960;SDS011;6040;49.358;11.140;2022-08-27T12:42:12;3.50;;;3.20;;
11960;SDS011;6040;49.358;11.140;2022-08-27T12:44:39;3.72;;;3.42;;
11960;SDS011;6040;49.358;11.140;2022-08-27T12:47:07;3.72;;;3.33;;
11960;SDS011;6040;49.358;11.140;2022-08-27T12:49:38;4.47;;;3.35;;
11960;SDS011;6040;49.358;11.140;2022-08-27T12:52:24;3.83;;;3.42;;
11960;SDS011;6040;49.358;11.140;2022-08-27T12:55:07;4.07;;;3.55;;
11960;SDS011;6040;49.358;11.140;2022-08-27T12:57:47;4.20;;;3.30;;
11960;SDS011;6040;49.358;11.140;2022-08-27T13:00:21;3.75;;;3.40;;
11960;SDS011;6040;49.358;11.140;2022-08-27T13:02:59;3.63;;;3.33;;
11960;SDS011;6040;49.358;11.140;2022-08-27T13:05:49;3.25;;;2.95;;
11960;SDS011;6040;49.358;11.140;2022-08-27T13:08:21;3.50;;;3.20;;
11960;SDS011;6040;49.358;11.140;2022-08-27T13:10:49;4.10;;;2.88;;
11960;SDS011;6040;49.358;11.140;2022-08-27T13:13:18;3.53;;;2.90;;
11960;SDS011;6040;49.358;11.140;2022-08-27T13:15:48;3.22;;;2.95;;
11960;SDS011;6040;49.358;11.140;2022-08-27T13:18:16;3.50;;;3.20;;
11960;SDS011;6040;49.358;11.140;2022-08-27T13:20:44;3.50;;;3.20;;
11960;SDS011;6040;49.358;11.140;2022-08-27T13:23:12;7.38;;;3.78;;
11960;SDS011;6040;49.358;11.140;2022-08-27T13:25:51;3.78;;;3.40;;
11960;SDS011;6040;49.358;11.140;2022-08-27T13:28:22;3.63;;;3.28;;
11960;SDS011;6040;49.358;11.140;2022-08-27T13:30:51;3.53;;;2.97;;
11960;SDS011;6040;49.358;11.140;2022-08-27T13:33:21;8.70;;;3.60;;
11960;SDS011;6040;49.358;11.140;2022-08-27T13:35:52;3.45;;;3.15;;
11960;SDS011;6040;49.358;11.140;2022-08-27T13:38:21;3.92;;;3.60;;
11960;SDS011;6040;49.358;11.140;2022-08-27T13:40:50;3.85;;;3.55;;
11960;SDS011;6040;49.358;11.140;2022-08-27T13:43:24;4.47;;;4.07;;
11960;SDS011;6040;49.358;11.140;2022-08-27T13:45:58;8.77;;;4.45;;
11960;SDS011;6040;49.358;11.140;2022-08-27T13:48:26;4.25;;;3.78;;
11960;SDS011;6040;49.358;11.140;2022-08-27T13:50:54;4.07;;;3.67;;
11960;SDS011;6040;49.358;11.140;2022-08-27T13:53:23;5.88;;;4.45;;
11960;SDS011;6040;49.358;11.140;2022-08-27T13:56:10;4.05;;;3.75;;
11960;SDS011;6040;49.358;11.140;2022-08-27T13:58:49;4.07;;;3.70;;
11960;SDS011;6040;49.358;11.140;2022-08-27T14:01:22;4.20;;;3.80;;
11960;SDS011;6040;49.358;11.140;2022-08-27T14:03:55;3.53;;;3.22;;
11960;SDS011;6040;49.358;11.140;2022-08-27T14:06:24;7.93;;;4.53;;
11960;SDS011;6040;49.358;11.140;2022-08-27T14:08:53;4.47;;;3.70;;
11960;SDS011;6040;49.358;11.140;2022-08-27T14:11:21;4.97;;;3.50;;
11960;SDS011;6040;49.358;11.140;2022-08-27T14:13:53;4.63;;;3.28;;
11960;SDS011;6040;49.358;11.140;2022-08-27T14:16:23;5.03;;;3.63;;
11960;SDS011;6040;49.358;11.140;2022-08-27T14:18:52;3.95;;;3.63;;
11960;SDS011;6040;49.358;11.140;2022-08-27T14:21:22;3.50;;;3.20;;
11960;SDS011;6040;49.358;11.140;2022-08-27T14:23:50;3.13;;;2.92;;
11960;SDS011;6040;49.358;11.140;2022-08-27T14:26:18;4.35;;;3.30;;
11960;SDS011;6040;49.358;11.140;2022-08-27T14:28:45;3.35;;;3.10;;
11960;SDS011;6040;49.358;11.140;2022-08-27T14:31:13;4.82;;;3.20;;
11960;SDS011;6040;49.358;11.140;2022-08-27T14:33:40;3.45;;;3.15;;
11960;SDS011;6040;49.358;11.140;2022-08-27T14:36:07;3.55;;;3.25;;
11960;SDS011;6040;49.358;11.140;2022-08-27T14:38:35;3.13;;;2.83;;
11960;SDS011;6040;49.358;11.140;2022-08-27T14:41:04;4.15;;;3.13;;
11960;SDS011;6040;49.358;11.140;2022-08-27T14:43:31;3.40;;;3.10;;
11960;SDS011;6040;49.358;11.140;2022-08-27T14:45:58;4.65;;;3.40;;
11960;SDS011;6040;49.358;11.140;2022-08-27T14:48:28;3.85;;;3.10;;
11960;SDS011;6040;49.358;11.140;2022-08-27T14:50:58;3.65;;;3.03;;
11960;SDS011;6040;49.358;11.140;2022-08-27T14:53:28;3.65;;;2.65;;